Capitol Logistics 344




TIST
Cyril E King Airport
Charlotte Amalie, VI
KMIA
Miami International Airport
Miami, US

Activity Log

Date Flight Route Aircraft Duration
05/21/2022 CPX344 PALCO7 PALCO RTE6 SJU DCT ACONY Y308 MADIZ VIICE2 B752 2h 49m
10/19/2021 CPX344 PALCO7 PALCO RTE6 SJU ACONY Y308 FOWEE FLIPR7 B738 2h 56m
09/14/2021 CPX344 PALCO7 PALCO RTE6 SJU ACONY Y308 FOWEE FLIPR7 B738 2h 48m
08/11/2021 CPX344 PALCO7 PALCO RTE6 SJU ACONY Y308 FOWEE FOWEE1 B738 2h 45m
08/09/2021 CPX344 PALCO7 PALCO RTE6 SJU ACONY Y308 FOWEE FOWEE1 B738 2h 39m

Route Details

Aircraft Information
Group: Narrowbodies
Types: B738,B752
Route Data
Demand: D
Distance: 963nm
Duration: 2h 49m
Recm'd Route: PALCO7 PALCO RTE6 SJU ACONY Y308 FOWEE FLIPR7
Origin Wx: TIST 272053Z 13013KT 10SM SCT030 BKN036 BKN046 28/22 A3001 RMK AO2 SLP162 T02830222 56010
Dest. Wx: KMIA 272053Z 13012KT 10SM FEW035 SCT050 SCT250 30/23 A2996 RMK AO2 LTG DSNT W SLP146 CB DSNT W-NW T03000233 58016 $
Notes:

Financial History
Total Freight: 36,138lbs
Average Load: 7,228lbs/flt
Fuel Used: 62,490lbs
Avg. Fuel Used: 12,498lbs/flt
Fuel Expense: $24,979
Avg. Fuel Expense: $4,996
Avg. Fuel Cost: $0.39/lbs
Total Gross Income: $88,467
Pilot Pay: $885
Total Expenses: $45,264
Total Revenue: $15,958
Average Revenue: $17,693.45